createdAt,value
2018-02-14T06:50:49.747Z,5.47
2018-02-14T06:53:18.434Z,6.93
2018-02-14T06:55:46.723Z,6.63
2018-02-14T06:58:15.154Z,5.07
2018-02-14T07:00:43.815Z,3.63
2018-02-14T07:03:12.453Z,3.77
2018-02-14T07:05:41.707Z,4.90
2018-02-14T07:08:10.418Z,4.03
2018-02-14T07:10:39.863Z,3.33
2018-02-14T07:13:08.126Z,4.17
2018-02-14T07:15:37.039Z,4.47
2018-02-14T07:18:05.090Z,3.77
2018-02-14T07:20:33.702Z,3.40
2018-02-14T07:23:01.770Z,3.30
2018-02-14T07:25:29.887Z,3.60
2018-02-14T07:28:00.611Z,3.50
2018-02-14T07:30:28.832Z,3.30
2018-02-14T07:32:56.768Z,3.67
2018-02-14T07:35:24.871Z,3.30
2018-02-14T07:37:52.939Z,3.10
2018-02-14T07:40:21.750Z,3.40
2018-02-14T07:42:50.051Z,3.40
2018-02-14T07:45:18.452Z,2.70
2018-02-14T07:47:46.690Z,3.30
2018-02-14T07:50:15.526Z,3.77
2018-02-14T07:52:45.259Z,4.67
2018-02-14T07:55:14.132Z,3.90
2018-02-14T07:57:43.150Z,3.93
2018-02-14T08:00:11.660Z,3.50
2018-02-14T08:02:39.707Z,2.97
2018-02-14T08:05:07.626Z,4.33
2018-02-14T08:07:36.500Z,5.07
2018-02-14T08:10:04.600Z,3.00
2018-02-14T08:12:32.979Z,5.77
2018-02-14T08:15:01.341Z,3.50
2018-02-14T08:17:30.239Z,3.30
2018-02-14T08:19:58.508Z,3.80
2018-02-14T08:22:27.502Z,3.27
2018-02-14T08:24:56.286Z,3.13
2018-02-14T08:27:24.811Z,4.57
2018-02-14T08:29:57.882Z,3.33
2018-02-14T08:32:27.687Z,3.57
2018-02-14T08:34:55.691Z,5.77
2018-02-14T08:37:24.204Z,5.57
2018-02-14T08:39:52.563Z,5.30
2018-02-14T08:42:33.887Z,9.10
2018-02-14T08:45:10.118Z,5.70
2018-02-14T08:47:39.483Z,7.57
2018-02-14T08:50:08.200Z,7.37
2018-02-14T08:52:37.075Z,7.00
2018-02-14T08:55:05.586Z,8.83
2018-02-14T08:57:34.955Z,6.83
2018-02-14T09:00:03.725Z,8.97
2018-02-14T09:02:35.417Z,13.20
2018-02-14T09:05:04.256Z,10.53
2018-02-14T09:07:33.167Z,8.77
2018-02-14T09:10:02.307Z,7.07
2018-02-14T09:12:31.514Z,12.63
2018-02-14T09:15:00.394Z,13.10
2018-02-14T09:17:28.867Z,16.00
2018-02-14T09:19:57.009Z,11.20
2018-02-14T09:22:25.312Z,9.17
2018-02-14T09:24:54.000Z,8.47
2018-02-14T09:27:23.709Z,11.13
2018-02-14T09:29:52.379Z,12.13
2018-02-14T09:32:21.347Z,14.87
2018-02-14T09:34:50.162Z,14.27
2018-02-14T09:37:21.976Z,12.13
2018-02-14T09:39:50.520Z,13.77
2018-02-14T09:42:25.875Z,12.47
2018-02-14T09:44:54.872Z,12.93
2018-02-14T09:47:30.237Z,11.37
2018-02-14T09:49:59.021Z,12.17
2018-02-14T09:52:27.688Z,20.70
2018-02-14T09:54:56.558Z,16.83
2018-02-14T09:57:25.126Z,12.53
2018-02-14T09:59:54.181Z,19.13
2018-02-14T10:02:22.714Z,14.83
2018-02-14T10:04:51.368Z,15.90
2018-02-14T10:07:20.598Z,15.87
2018-02-14T10:09:50.180Z,18.07
2018-02-14T10:12:19.618Z,14.17
2018-02-14T10:14:48.143Z,15.40
2018-02-14T10:17:16.873Z,16.40
2018-02-14T10:19:45.604Z,17.27
2018-02-14T10:22:14.264Z,18.63
2018-02-14T10:24:42.718Z,21.53
2018-02-14T10:27:15.536Z,19.20
2018-02-14T10:29:44.513Z,18.93
2018-02-14T10:32:13.174Z,19.63
2018-02-14T10:34:42.367Z,17.13
2018-02-14T10:37:11.294Z,20.17
2018-02-14T10:39:40.264Z,21.60
2018-02-14T10:42:09.043Z,20.17
2018-02-14T10:44:38.241Z,27.80
2018-02-14T10:47:06.971Z,19.97
2018-02-14T10:49:36.266Z,21.23
2018-02-14T10:52:04.558Z,23.27
2018-02-14T10:54:38.241Z,18.70
2018-02-14T10:57:06.887Z,22.37
2018-02-14T10:59:36.760Z,21.30
2018-02-14T11:02:05.935Z,19.13
2018-02-14T11:59:30.485Z,22.50
2018-02-14T12:01:59.457Z,21.20
2018-02-14T12:04:27.501Z,23.23
2018-02-14T12:07:00.588Z,21.73
2018-02-14T12:09:28.781Z,23.07
2018-02-14T12:12:00.397Z,21.93
2018-02-14T12:14:29.114Z,20.80
2018-02-14T12:16:57.466Z,18.33
2018-02-14T12:19:25.710Z,27.60
2018-02-14T12:21:53.753Z,19.23
2018-02-14T12:24:22.200Z,22.60
2018-02-14T12:26:50.520Z,17.10
2018-02-14T12:29:18.464Z,18.90
2018-02-14T12:31:46.568Z,15.47
2018-02-14T12:34:15.026Z,17.47
2018-02-14T12:36:44.208Z,19.77
2018-02-14T12:39:12.476Z,14.87
2018-02-14T12:41:40.703Z,23.57
2018-02-14T12:44:09.511Z,18.83
2018-02-14T12:46:38.259Z,21.80
2018-02-14T12:49:07.121Z,22.83
2018-02-14T12:51:36.647Z,25.37
2018-02-14T12:54:05.694Z,22.53
2018-02-14T12:56:34.018Z,27.57
2018-02-14T12:59:03.308Z,25.10
2018-02-14T13:01:32.174Z,23.10
2018-02-14T13:04:00.572Z,27.37
2018-02-14T13:06:29.146Z,24.37
2018-02-14T13:08:59.288Z,21.13
2018-02-14T13:11:27.453Z,22.67
2018-02-14T13:13:55.612Z,33.22
2018-02-14T13:16:24.918Z,21.67
2018-02-14T13:18:53.969Z,22.83
2018-02-14T13:21:22.168Z,21.17
2018-02-14T13:23:50.232Z,22.57
2018-02-14T13:26:18.224Z,24.67
2018-02-14T13:28:47.557Z,23.03
2018-02-14T13:31:15.619Z,22.50
2018-02-14T13:33:43.947Z,23.93
2018-02-14T13:36:11.910Z,24.23
2018-02-14T13:38:40.387Z,24.70
2018-02-14T13:41:08.459Z,22.92
2018-02-14T13:43:36.601Z,21.50
2018-02-14T13:46:04.807Z,22.77
2018-02-14T13:48:33.466Z,20.80
2018-02-14T13:51:01.570Z,21.40
2018-02-14T13:53:29.624Z,22.17
2018-02-14T13:55:58.025Z,23.20
2018-02-14T13:58:26.175Z,24.23
2018-02-14T14:00:55.282Z,22.07
2018-02-14T14:03:23.322Z,21.53
2018-02-14T14:05:51.421Z,22.40
2018-02-14T14:08:19.916Z,22.30
2018-02-14T14:10:47.876Z,20.83
2018-02-14T14:23:10.647Z,25.73
2018-02-14T14:28:49.937Z,25.60
2018-02-14T15:04:42.241Z,34.37
2018-02-14T15:10:10.603Z,34.43
2018-02-14T15:15:56.202Z,30.53
2018-02-14T15:18:38.540Z,29.27
2018-02-14T15:21:26.566Z,28.20
2018-02-14T15:24:05.790Z,25.33
2018-02-14T15:26:48.513Z,26.33
2018-02-14T15:29:36.669Z,24.80
2018-02-14T15:34:54.415Z,22.63
2018-02-14T15:37:40.640Z,27.23
2018-02-14T15:43:44.846Z,23.87
2018-02-14T15:46:37.984Z,22.47
2018-02-14T15:52:24.936Z,20.93
2018-02-14T16:01:34.953Z,20.00
2018-02-14T16:04:13.734Z,21.33
